This is the latest recevied weather packets stored in our database for station/object EA4IAJ-12. If no packets are shown the sender has not sent any weather packets the latest 10 day(s).
| Time | Temp. | Humidity | Pressure | Rain* | Wind** | Luminosity | Snow |
|---|---|---|---|---|---|---|---|
| 1788022289 | 31.11° C | 25% | 1045.5 hPa | - | - | - | - |
| 1788021388 | 31.67° C | 25% | 1047.2 hPa | - | - | - | - |
| 1788020491 | 31.67° C | 25% | 1047.3 hPa | - | - | - | - |
| 1788019587 | 32.78° C | 25% | 1050.9 hPa | - | - | - | - |
| 1788017798 | 33.89° C | 25% | 1056.6 hPa | - | - | - | - |
| 1788016908 | 33.33° C | 25% | 1054.3 hPa | - | - | - | - |
| 1788015997 | 35.56° C | 26% | 1063.2 hPa | - | - | - | - |
| 1788015100 | 33.89° C | 26% | 1057 hPa | - | - | - | - |
| 1788014196 | 35.56° C | 26% | 1064.3 hPa | - | - | - | - |
| 1788012395 | 35.56° C | 28% | 1065.7 hPa | - | - | - | - |
| 1788011494 | 37.22° C | 29% | 1074.1 hPa | - | - | - | - |
| 1788010594 | 38.33° C | 30% | 1078.4 hPa | - | - | - | - |
| 1788008793 | 37.78° C | 32% | 1078.6 hPa | - | - | - | - |
| 1788007892 | 35° C | 32% | 1067.3 hPa | - | - | - | - |
| 1788006992 | 36.67° C | 34% | 1075.7 hPa | - | - | - | - |
| 1788005191 | 35.56° C | 37% | 1073 hPa | - | - | - | - |
| 1788004290 | 36.67° C | 40% | 1078.6 hPa | - | - | - | - |
| 1788003389 | 36.67° C | 42% | 1080.6 hPa | - | - | - | - |
| 1788002489 | 37.22° C | 46% | 1083.7 hPa | - | - | - | - |
| 1788001588 | 35.56° C | 50% | 1078.5 hPa | - | - | - | - |
| 1788000688 | 36.11° C | 57% | 1081.5 hPa | - | - | - | - |
| 1787998887 | 36.11° C | 73% | 1084.6 hPa | - | - | - | - |
| 1787997986 | 33.33° C | 78% | 1072.4 hPa | - | - | - | - |
| 1787997109 | 32.78° C | 86% | 1073.3 hPa | - | - | - | - |
| 1787996199 | 31.11° C | 92% | 1067 hPa | - | - | - | - |
* Rain since midnight (hover to see other rain measurements)
** Current wind speed in m/s (hover to see current wind gust speed)